sensor_id;sensor_type;location;lat;lon;timestamp;pressure;altitude;pressure_sealevel;temperature;humidity
43934;BME280;59081;42.706;23.306;2023-03-11T00:02:20;93383.91;;;8.51;100.00
43934;BME280;59081;42.706;23.306;2023-03-11T00:04:45;93275.59;;;7.66;100.00
43934;BME280;59081;42.706;23.306;2023-03-11T00:07:11;93322.91;;;7.76;100.00
43934;BME280;59081;42.706;23.306;2023-03-11T00:09:37;93340.44;;;8.02;100.00
43934;BME280;59081;42.706;23.306;2023-03-11T00:12:03;93394.56;;;8.25;100.00
43934;BME280;59081;42.706;23.306;2023-03-11T00:14:29;93397.41;;;7.98;100.00
43934;BME280;59081;42.706;23.306;2023-03-11T00:16:55;93434.63;;;8.32;100.00
43934;BME280;59081;42.706;23.306;2023-03-11T00:19:21;93278.91;;;7.37;100.00
43934;BME280;59081;42.706;23.306;2023-03-11T00:21:46;93325.50;;;7.70;100.00
43934;BME280;59081;42.706;23.306;2023-03-11T00:24:12;93334.03;;;7.72;100.00
43934;BME280;59081;42.706;23.306;2023-03-11T00:26:37;93420.91;;;8.32;100.00
43934;BME280;59081;42.706;23.306;2023-03-11T00:29:03;93336.16;;;7.77;100.00
43934;BME280;59081;42.706;23.306;2023-03-11T00:31:29;93387.41;;;8.28;100.00
43934;BME280;59081;42.706;23.306;2023-03-11T00:33:57;93364.72;;;8.18;100.00
43934;BME280;59081;42.706;23.306;2023-03-11T00:36:32;93298.34;;;7.81;100.00
43934;BME280;59081;42.706;23.306;2023-03-11T00:38:59;93277.84;;;7.77;100.00
43934;BME280;59081;42.706;23.306;2023-03-11T00:41:31;93249.41;;;7.65;100.00
43934;BME280;59081;42.706;23.306;2023-03-11T00:43:57;93265.09;;;7.64;100.00
43934;BME280;59081;42.706;23.306;2023-03-11T00:46:22;93351.44;;;8.26;100.00
43934;BME280;59081;42.706;23.306;2023-03-11T00:48:51;93379.13;;;8.37;100.00
43934;BME280;59081;42.706;23.306;2023-03-11T00:51:17;93370.75;;;8.31;100.00
43934;BME280;59081;42.706;23.306;2023-03-11T00:53:43;93287.94;;;7.94;100.00
43934;BME280;59081;42.706;23.306;2023-03-11T00:56:14;93336.03;;;8.52;100.00
43934;BME280;59081;42.706;23.306;2023-03-11T00:58:41;93369.44;;;8.75;100.00
43934;BME280;59081;42.706;23.306;2023-03-11T01:01:13;93400.13;;;9.12;100.00
43934;BME280;59081;42.706;23.306;2023-03-11T01:03:39;93330.41;;;8.70;100.00
43934;BME280;59081;42.706;23.306;2023-03-11T01:06:05;93320.59;;;8.79;100.00
43934;BME280;59081;42.706;23.306;2023-03-11T01:08:31;93363.44;;;9.00;100.00
43934;BME280;59081;42.706;23.306;2023-03-11T01:10:57;93325.22;;;8.72;100.00
43934;BME280;59081;42.706;23.306;2023-03-11T01:13:25;93326.94;;;8.85;100.00
43934;BME280;59081;42.706;23.306;2023-03-11T01:15:51;93332.09;;;8.92;100.00
43934;BME280;59081;42.706;23.306;2023-03-11T01:18:17;93405.38;;;9.54;100.00
43934;BME280;59081;42.706;23.306;2023-03-11T01:20:42;93262.50;;;8.80;100.00
43934;BME280;59081;42.706;23.306;2023-03-11T01:23:08;93381.88;;;9.53;100.00
43934;BME280;59081;42.706;23.306;2023-03-11T01:25:34;93217.97;;;8.47;100.00
43934;BME280;59081;42.706;23.306;2023-03-11T01:28:00;93198.28;;;8.48;100.00
43934;BME280;59081;42.706;23.306;2023-03-11T01:30:27;93270.91;;;9.06;100.00
43934;BME280;59081;42.706;23.306;2023-03-11T01:32:54;93263.63;;;9.03;100.00
43934;BME280;59081;42.706;23.306;2023-03-11T01:35:22;93294.03;;;9.14;100.00
43934;BME280;59081;42.706;23.306;2023-03-11T01:37:48;93250.34;;;8.72;100.00
43934;BME280;59081;42.706;23.306;2023-03-11T01:40:28;93267.28;;;8.70;100.00
43934;BME280;59081;42.706;23.306;2023-03-11T01:42:54;93104.09;;;7.36;100.00
43934;BME280;59081;42.706;23.306;2023-03-11T01:46:05;93336.94;;;8.97;100.00
43934;BME280;59081;42.706;23.306;2023-03-11T01:48:28;93299.88;;;8.78;100.00
43934;BME280;59081;42.706;23.306;2023-03-11T01:50:53;93168.53;;;7.93;100.00
43934;BME280;59081;42.706;23.306;2023-03-11T01:53:27;93299.75;;;8.72;100.00
43934;BME280;59081;42.706;23.306;2023-03-11T01:55:53;93315.88;;;8.79;100.00
43934;BME280;59081;42.706;23.306;2023-03-11T01:58:24;93287.41;;;8.53;100.00
43934;BME280;59081;42.706;23.306;2023-03-11T02:00:51;93288.88;;;8.39;100.00
43934;BME280;59081;42.706;23.306;2023-03-11T02:03:35;93236.25;;;7.78;100.00
43934;BME280;59081;42.706;23.306;2023-03-11T02:06:03;93264.88;;;8.01;100.00
43934;BME280;59081;42.706;23.306;2023-03-11T02:08:30;93279.38;;;8.25;100.00
43934;BME280;59081;42.706;23.306;2023-03-11T02:10:59;93206.75;;;7.73;100.00
43934;BME280;59081;42.706;23.306;2023-03-11T02:13:26;93314.22;;;8.34;100.00
43934;BME280;59081;42.706;23.306;2023-03-11T02:15:53;93220.44;;;7.73;100.00
43934;BME280;59081;42.706;23.306;2023-03-11T02:18:19;93266.47;;;7.93;100.00
43934;BME280;59081;42.706;23.306;2023-03-11T02:21:20;93179.88;;;7.29;100.00
43934;BME280;59081;42.706;23.306;2023-03-11T02:29:10;93253.72;;;7.81;100.00
43934;BME280;59081;42.706;23.306;2023-03-11T02:31:37;93392.91;;;8.76;100.00
43934;BME280;59081;42.706;23.306;2023-03-11T02:34:05;93255.19;;;7.67;100.00
43934;BME280;59081;42.706;23.306;2023-03-11T02:36:41;93252.88;;;7.75;100.00
43934;BME280;59081;42.706;23.306;2023-03-11T02:39:08;93160.41;;;7.27;100.00
43934;BME280;59081;42.706;23.306;2023-03-11T02:41:39;93269.63;;;8.00;100.00
43934;BME280;59081;42.706;23.306;2023-03-11T02:44:09;93186.03;;;7.48;100.00
43934;BME280;59081;42.706;23.306;2023-03-11T02:46:37;93300.25;;;8.23;100.00
43934;BME280;59081;42.706;23.306;2023-03-11T02:49:05;93217.88;;;7.69;100.00
43934;BME280;59081;42.706;23.306;2023-03-11T02:51:30;93387.63;;;8.87;100.00
43934;BME280;59081;42.706;23.306;2023-03-11T02:53:58;93245.75;;;7.68;100.00
43934;BME280;59081;42.706;23.306;2023-03-11T02:56:25;93242.78;;;7.81;100.00
43934;BME280;59081;42.706;23.306;2023-03-11T02:58:51;93386.50;;;8.79;100.00
43934;BME280;59081;42.706;23.306;2023-03-11T03:01:17;93241.63;;;7.96;100.00
43934;BME280;59081;42.706;23.306;2023-03-11T03:03:42;93311.59;;;8.63;100.00
43934;BME280;59081;42.706;23.306;2023-03-11T03:06:08;93279.84;;;8.48;100.00
43934;BME280;59081;42.706;23.306;2023-03-11T03:08:33;93317.31;;;8.89;100.00
43934;BME280;59081;42.706;23.306;2023-03-11T03:10:59;93323.66;;;8.95;98.57
43934;BME280;59081;42.706;23.306;2023-03-11T03:13:26;93242.00;;;8.52;97.65
43934;BME280;59081;42.706;23.306;2023-03-11T03:15:51;93282.38;;;8.90;96.58
43934;BME280;59081;42.706;23.306;2023-03-11T03:18:17;93201.84;;;8.40;95.90
43934;BME280;59081;42.706;23.306;2023-03-11T03:20:43;93325.78;;;9.15;96.04
43934;BME280;59081;42.706;23.306;2023-03-11T03:23:09;93229.19;;;8.49;96.04
43934;BME280;59081;42.706;23.306;2023-03-11T03:25:35;93255.00;;;8.81;96.44
43934;BME280;59081;42.706;23.306;2023-03-11T03:28:00;93318.75;;;9.14;96.24
43934;BME280;59081;42.706;23.306;2023-03-11T03:30:26;93278.75;;;8.84;95.04
43934;BME280;59081;42.706;23.306;2023-03-11T03:32:54;93299.25;;;9.12;94.28
43934;BME280;59081;42.706;23.306;2023-03-11T03:35:19;93254.72;;;8.79;91.72
43934;BME280;59081;42.706;23.306;2023-03-11T03:37:45;93369.63;;;9.54;91.39
43934;BME280;59081;42.706;23.306;2023-03-11T03:40:11;93250.94;;;8.91;90.90
43934;BME280;59081;42.706;23.306;2023-03-11T03:42:37;93269.41;;;9.05;92.85
43934;BME280;59081;42.706;23.306;2023-03-11T03:45:04;93407.38;;;9.97;93.79
43934;BME280;59081;42.706;23.306;2023-03-11T03:47:31;93281.84;;;9.15;94.24
43934;BME280;59081;42.706;23.306;2023-03-11T03:49:57;93238.44;;;8.75;95.38
43934;BME280;59081;42.706;23.306;2023-03-11T03:52:23;93230.19;;;8.75;96.12
43934;BME280;59081;42.706;23.306;2023-03-11T03:54:49;93395.91;;;9.84;96.15
43934;BME280;59081;42.706;23.306;2023-03-11T03:57:14;93354.19;;;9.56;96.51
43934;BME280;59081;42.706;23.306;2023-03-11T03:59:40;93253.28;;;8.83;96.08
43934;BME280;59081;42.706;23.306;2023-03-11T04:02:05;93290.91;;;9.21;94.01
43934;BME280;59081;42.706;23.306;2023-03-11T04:04:31;93350.03;;;9.61;87.51
43934;BME280;59081;42.706;23.306;2023-03-11T04:06:57;93315.44;;;9.39;86.05
43934;BME280;59081;42.706;23.306;2023-03-11T04:09:23;93289.47;;;9.40;86.00
43934;BME280;59081;42.706;23.306;2023-03-11T04:11:49;93325.94;;;9.70;84.45
43934;BME280;59081;42.706;23.306;2023-03-11T04:14:14;93207.09;;;8.96;82.80
43934;BME280;59081;42.706;23.306;2023-03-11T04:16:40;93294.41;;;9.51;83.35
43934;BME280;59081;42.706;23.306;2023-03-11T04:19:05;93288.53;;;9.43;83.08
43934;BME280;59081;42.706;23.306;2023-03-11T04:21:34;93178.03;;;8.75;82.57
43934;BME280;59081;42.706;23.306;2023-03-11T04:24:00;93227.75;;;8.92;82.53
43934;BME280;59081;42.706;23.306;2023-03-11T04:26:26;93264.38;;;9.18;82.96
43934;BME280;59081;42.706;23.306;2023-03-11T04:28:55;93412.50;;;10.19;83.46
43934;BME280;59081;42.706;23.306;2023-03-11T04:31:23;93352.56;;;9.79;83.50
43934;BME280;59081;42.706;23.306;2023-03-11T04:33:49;93262.19;;;9.22;84.41
43934;BME280;59081;42.706;23.306;2023-03-11T04:36:14;93197.25;;;8.75;83.85
43934;BME280;59081;42.706;23.306;2023-03-11T04:38:39;93270.06;;;9.29;83.37
43934;BME280;59081;42.706;23.306;2023-03-11T04:41:06;93342.25;;;9.74;82.27
43934;BME280;59081;42.706;23.306;2023-03-11T04:43:32;93216.47;;;8.90;82.32
43934;BME280;59081;42.706;23.306;2023-03-11T04:45:58;93390.75;;;10.06;82.69
43934;BME280;59081;42.706;23.306;2023-03-11T04:48:23;93210.22;;;8.89;82.24
43934;BME280;59081;42.706;23.306;2023-03-11T04:50:51;93291.94;;;9.53;82.07
43934;BME280;59081;42.706;23.306;2023-03-11T04:53:17;93240.91;;;9.17;81.20
43934;BME280;59081;42.706;23.306;2023-03-11T04:55:42;93253.97;;;9.22;80.14
43934;BME280;59081;42.706;23.306;2023-03-11T04:58:08;93296.94;;;9.55;79.74
43934;BME280;59081;42.706;23.306;2023-03-11T05:00:34;93223.47;;;8.91;79.92
43934;BME280;59081;42.706;23.306;2023-03-11T05:02:59;93350.00;;;9.75;79.63
43934;BME280;59081;42.706;23.306;2023-03-11T05:05:25;93204.38;;;8.82;79.21
43934;BME280;59081;42.706;23.306;2023-03-11T05:07:50;93268.91;;;9.36;78.71
43934;BME280;59081;42.706;23.306;2023-03-11T05:10:16;93305.47;;;9.57;78.44
43934;BME280;59081;42.706;23.306;2023-03-11T05:12:47;93313.63;;;9.66;78.76
43934;BME280;59081;42.706;23.306;2023-03-11T05:15:13;93386.00;;;10.07;77.97
43934;BME280;59081;42.706;23.306;2023-03-11T05:17:38;93242.13;;;9.01;78.35
43934;BME280;59081;42.706;23.306;2023-03-11T05:20:07;93360.81;;;9.79;78.47
43934;BME280;59081;42.706;23.306;2023-03-11T05:22:33;93267.53;;;9.11;78.32
43934;BME280;59081;42.706;23.306;2023-03-11T05:24:58;93310.91;;;9.51;78.98
43934;BME280;59081;42.706;23.306;2023-03-11T05:27:24;93294.53;;;9.13;78.32
43934;BME280;59081;42.706;23.306;2023-03-11T05:29:50;93339.69;;;9.56;78.50
43934;BME280;59081;42.706;23.306;2023-03-11T05:32:15;93393.63;;;9.83;79.04
43934;BME280;59081;42.706;23.306;2023-03-11T05:34:41;93374.88;;;9.66;79.71
43934;BME280;59081;42.706;23.306;2023-03-11T05:37:07;93462.47;;;10.32;80.02
43934;BME280;59081;42.706;23.306;2023-03-11T05:39:33;93377.03;;;9.77;79.17
43934;BME280;59081;42.706;23.306;2023-03-11T05:41:59;93464.94;;;10.30;79.16
43934;BME280;59081;42.706;23.306;2023-03-11T05:44:25;93343.97;;;9.57;79.24
43934;BME280;59081;42.706;23.306;2023-03-11T05:46:50;93319.41;;;9.38;78.46
43934;BME280;59081;42.706;23.306;2023-03-11T05:49:16;93372.69;;;9.56;80.50
43934;BME280;59081;42.706;23.306;2023-03-11T05:51:41;93352.97;;;9.57;81.54
43934;BME280;59081;42.706;23.306;2023-03-11T05:54:07;93330.81;;;9.31;83.21
43934;BME280;59081;42.706;23.306;2023-03-11T05:56:40;93480.50;;;10.33;84.20
43934;BME280;59081;42.706;23.306;2023-03-11T05:59:06;93405.41;;;9.68;83.50
43934;BME280;59081;42.706;23.306;2023-03-11T06:01:32;93244.09;;;8.57;84.81
43934;BME280;59081;42.706;23.306;2023-03-11T06:03:58;93409.16;;;9.71;85.03
43934;BME280;59081;42.706;23.306;2023-03-11T06:06:24;93301.69;;;8.81;85.45
43934;BME280;59081;42.706;23.306;2023-03-11T06:08:50;93315.91;;;8.94;85.73
43934;BME280;59081;42.706;23.306;2023-03-11T06:11:16;93330.75;;;9.02;87.03
43934;BME280;59081;42.706;23.306;2023-03-11T06:13:42;93489.13;;;10.11;86.86
43934;BME280;59081;42.706;23.306;2023-03-11T06:16:07;93369.16;;;9.26;87.43
43934;BME280;59081;42.706;23.306;2023-03-11T06:18:33;93418.56;;;9.50;87.71
43934;BME280;59081;42.706;23.306;2023-03-11T06:21:00;93436.75;;;9.62;87.59
43934;BME280;59081;42.706;23.306;2023-03-11T06:23:27;93341.34;;;8.80;88.06
43934;BME280;59081;42.706;23.306;2023-03-11T06:26:01;93447.41;;;9.69;88.38
43934;BME280;59081;42.706;23.306;2023-03-11T06:28:28;93378.78;;;9.06;89.06
43934;BME280;59081;42.706;23.306;2023-03-11T06:30:54;93337.75;;;8.88;88.70
43934;BME280;59081;42.706;23.306;2023-03-11T06:33:23;93403.19;;;9.28;88.17
43934;BME280;59081;42.706;23.306;2023-03-11T06:35:59;93410.78;;;9.33;87.47
43934;BME280;59081;42.706;23.306;2023-03-11T06:38:26;93365.16;;;9.12;86.65
43934;BME280;59081;42.706;23.306;2023-03-11T06:40:52;93402.72;;;9.30;87.82
43934;BME280;59081;42.706;23.306;2023-03-11T06:43:18;93426.59;;;9.53;87.86
43934;BME280;59081;42.706;23.306;2023-03-11T06:45:44;93305.06;;;8.76;88.21
43934;BME280;59081;42.706;23.306;2023-03-11T06:48:10;93336.22;;;8.87;89.20
43934;BME280;59081;42.706;23.306;2023-03-11T06:50:35;93396.66;;;9.40;89.84
43934;BME280;59081;42.706;23.306;2023-03-11T06:53:01;93374.19;;;9.27;89.11
43934;BME280;59081;42.706;23.306;2023-03-11T06:55:27;93362.25;;;9.16;86.91
43934;BME280;59081;42.706;23.306;2023-03-11T06:57:53;93476.31;;;9.94;87.78
43934;BME280;59081;42.706;23.306;2023-03-11T07:00:18;93357.75;;;9.03;88.15
43934;BME280;59081;42.706;23.306;2023-03-11T07:02:44;93387.16;;;9.27;88.17
43934;BME280;59081;42.706;23.306;2023-03-11T07:05:09;93405.00;;;9.46;88.52
43934;BME280;59081;42.706;23.306;2023-03-11T07:07:36;93402.31;;;9.37;88.18
43934;BME280;59081;42.706;23.306;2023-03-11T07:10:02;93446.06;;;9.64;89.68
43934;BME280;59081;42.706;23.306;2023-03-11T07:12:28;93412.03;;;9.62;91.55
43934;BME280;59081;42.706;23.306;2023-03-11T07:14:55;93337.91;;;9.23;92.09
43934;BME280;59081;42.706;23.306;2023-03-11T07:17:21;93392.84;;;9.53;93.96
43934;BME280;59081;42.706;23.306;2023-03-11T07:19:46;93336.56;;;9.19;90.81
43934;BME280;59081;42.706;23.306;2023-03-11T07:22:12;93365.38;;;9.53;90.03
43934;BME280;59081;42.706;23.306;2023-03-11T07:24:39;93459.28;;;10.19;87.53
43934;BME280;59081;42.706;23.306;2023-03-11T07:27:05;93353.81;;;9.63;86.24
43934;BME280;59081;42.706;23.306;2023-03-11T07:29:30;93329.38;;;9.65;86.10
43934;BME280;59081;42.706;23.306;2023-03-11T07:31:56;93376.66;;;9.99;85.74
43934;BME280;59081;42.706;23.306;2023-03-11T07:34:21;93378.03;;;10.09;85.97
43934;BME280;59081;42.706;23.306;2023-03-11T07:36:47;93311.53;;;9.75;85.27
43934;BME280;59081;42.706;23.306;2023-03-11T07:39:15;93411.75;;;10.54;85.00
43934;BME280;59081;42.706;23.306;2023-03-11T07:41:41;93439.25;;;11.09;81.84
43934;BME280;59081;42.706;23.306;2023-03-11T07:44:07;93358.47;;;10.57;80.08
43934;BME280;59081;42.706;23.306;2023-03-11T07:46:32;93269.88;;;10.18;80.12
43934;BME280;59081;42.706;23.306;2023-03-11T07:49:00;93413.69;;;11.29;75.29
43934;BME280;59081;42.706;23.306;2023-03-11T07:51:29;93475.94;;;11.81;75.30
43934;BME280;59081;42.706;23.306;2023-03-11T07:53:57;93254.56;;;10.52;73.02
43934;BME280;59081;42.706;23.306;2023-03-11T07:56:24;93365.59;;;11.30;71.14
43934;BME280;59081;42.706;23.306;2023-03-11T07:58:53;93315.81;;;11.39;69.79
43934;BME280;59081;42.706;23.306;2023-03-11T08:01:26;93415.78;;;12.11;70.39
43934;BME280;59081;42.706;23.306;2023-03-11T08:03:53;93331.59;;;11.64;68.49
43934;BME280;59081;42.706;23.306;2023-03-11T08:06:27;93316.97;;;11.84;69.66
43934;BME280;59081;42.706;23.306;2023-03-11T08:08:58;93355.69;;;12.27;68.42
43934;BME280;59081;42.706;23.306;2023-03-11T08:11:23;93295.28;;;12.03;67.38
43934;BME280;59081;42.706;23.306;2023-03-11T08:13:50;93255.50;;;11.78;67.09
43934;BME280;59081;42.706;23.306;2023-03-11T08:16:17;93217.38;;;11.76;65.49
43934;BME280;59081;42.706;23.306;2023-03-11T08:18:44;93271.59;;;12.22;63.49
43934;BME280;59081;42.706;23.306;2023-03-11T08:21:12;93336.06;;;12.67;62.53
43934;BME280;59081;42.706;23.306;2023-03-11T08:23:38;93316.22;;;12.63;63.19
43934;BME280;59081;42.706;23.306;2023-03-11T08:26:05;93266.97;;;12.56;64.17
43934;BME280;59081;42.706;23.306;2023-03-11T08:28:31;93268.84;;;12.87;63.35
43934;BME280;59081;42.706;23.306;2023-03-11T08:30:57;93209.19;;;12.47;63.22
43934;BME280;59081;42.706;23.306;2023-03-11T08:33:23;93215.72;;;12.44;61.99
43934;BME280;59081;42.706;23.306;2023-03-11T08:35:48;93305.44;;;13.30;65.47
43934;BME280;59081;42.706;23.306;2023-03-11T08:38:14;93187.88;;;12.53;61.56
43934;BME280;59081;42.706;23.306;2023-03-11T08:40:39;93166.75;;;12.39;58.45
43934;BME280;59081;42.706;23.306;2023-03-11T08:43:05;93310.91;;;13.19;59.00
43934;BME280;59081;42.706;23.306;2023-03-11T08:45:34;93244.78;;;13.10;59.83
43934;BME280;59081;42.706;23.306;2023-03-11T08:48:00;93235.78;;;13.26;58.88
43934;BME280;59081;42.706;23.306;2023-03-11T08:50:25;93267.75;;;13.83;57.71
43934;BME280;59081;42.706;23.306;2023-03-11T08:52:51;93360.03;;;14.58;56.38
43934;BME280;59081;42.706;23.306;2023-03-11T08:55:21;93259.94;;;13.98;55.34
43934;BME280;59081;42.706;23.306;2023-03-11T08:57:51;93260.44;;;14.02;54.07
43934;BME280;59081;42.706;23.306;2023-03-11T09:00:17;93310.00;;;13.89;54.62
43934;BME280;59081;42.706;23.306;2023-03-11T09:02:46;93248.59;;;13.51;55.09
43934;BME280;59081;42.706;23.306;2023-03-11T09:05:12;93282.84;;;13.82;54.73
43934;BME280;59081;42.706;23.306;2023-03-11T09:07:38;93210.63;;;13.80;54.72
43934;BME280;59081;42.706;23.306;2023-03-11T09:10:04;93243.84;;;13.63;55.57
43934;BME280;59081;42.706;23.306;2023-03-11T09:12:30;93273.44;;;14.46;56.78
43934;BME280;59081;42.706;23.306;2023-03-11T09:14:55;93310.66;;;14.68;55.19
43934;BME280;59081;42.706;23.306;2023-03-11T09:17:21;93290.69;;;14.80;55.03
43934;BME280;59081;42.706;23.306;2023-03-11T09:19:47;93251.97;;;14.58;53.72
43934;BME280;59081;42.706;23.306;2023-03-11T09:22:13;93259.97;;;14.78;53.12
43934;BME280;59081;42.706;23.306;2023-03-11T09:24:38;93312.75;;;15.14;52.41
43934;BME280;59081;42.706;23.306;2023-03-11T09:27:04;93297.63;;;15.09;52.23
43934;BME280;59081;42.706;23.306;2023-03-11T09:29:30;93186.00;;;14.56;51.46
43934;BME280;59081;42.706;23.306;2023-03-11T09:31:56;93282.16;;;15.72;51.33
43934;BME280;59081;42.706;23.306;2023-03-11T09:34:22;93212.38;;;15.21;49.88
43934;BME280;59081;42.706;23.306;2023-03-11T09:36:50;93322.94;;;15.82;50.95
43934;BME280;59081;42.706;23.306;2023-03-11T09:39:18;93283.88;;;15.39;51.88
43934;BME280;59081;42.706;23.306;2023-03-11T09:41:58;93248.13;;;15.65;51.61
43934;BME280;59081;42.706;23.306;2023-03-11T09:44:59;93287.25;;;15.62;51.44
43934;BME280;59081;42.706;23.306;2023-03-11T09:52:51;93278.97;;;15.92;51.01
43934;BME280;59081;42.706;23.306;2023-03-11T09:55:58;93160.09;;;15.30;48.47
43934;BME280;59081;42.706;23.306;2023-03-11T09:59:04;93310.94;;;16.28;47.63
43934;BME280;59081;42.706;23.306;2023-03-11T10:01:58;93321.06;;;16.80;46.09
43934;BME280;59081;42.706;23.306;2023-03-11T10:07:08;93121.63;;;15.16;45.58
43934;BME280;59081;42.706;23.306;2023-03-11T10:09:57;93269.25;;;16.04;46.31
43934;BME280;59081;42.706;23.306;2023-03-11T10:21:40;93207.59;;;16.35;43.33
43934;BME280;59081;42.706;23.306;2023-03-11T10:27:48;93148.16;;;15.71;43.75
43934;BME280;59081;42.706;23.306;2023-03-11T10:30:44;93345.13;;;16.78;44.71
43934;BME280;59081;42.706;23.306;2023-03-11T10:36:14;93276.63;;;15.96;46.32
43934;BME280;59081;42.706;23.306;2023-03-11T10:38:56;93340.84;;;15.40;49.91
43934;BME280;59081;42.706;23.306;2023-03-11T10:41:46;93292.03;;;14.57;51.61
43934;BME280;59081;42.706;23.306;2023-03-11T10:44:20;93188.16;;;14.17;51.54
43934;BME280;59081;42.706;23.306;2023-03-11T10:46:56;93348.91;;;14.80;53.02
43934;BME280;59081;42.706;23.306;2023-03-11T10:49:31;93361.72;;;14.94;53.28
43934;BME280;59081;42.706;23.306;2023-03-11T10:52:04;93264.63;;;14.37;55.32
43934;BME280;59081;42.706;23.306;2023-03-11T10:54:36;93167.13;;;12.97;58.66
43934;BME280;59081;42.706;23.306;2023-03-11T10:57:24;93358.06;;;14.08;58.20
43934;BME280;59081;42.706;23.306;2023-03-11T10:59:57;93263.94;;;13.41;57.88
43934;BME280;59081;42.706;23.306;2023-03-11T11:07:39;93367.38;;;14.27;57.18
43934;BME280;59081;42.706;23.306;2023-03-11T11:10:31;93146.25;;;12.90;56.47
43934;BME280;59081;42.706;23.306;2023-03-11T11:13:19;93159.38;;;13.23;55.86
43934;BME280;59081;42.706;23.306;2023-03-11T11:16:04;93184.47;;;13.81;54.41
43934;BME280;59081;42.706;23.306;2023-03-11T11:18:40;93242.22;;;14.40;52.75
43934;BME280;59081;42.706;23.306;2023-03-11T11:21:15;93323.00;;;15.30;53.22
43934;BME280;59081;42.706;23.306;2023-03-11T11:23:46;93148.69;;;14.63;52.09
43934;BME280;59081;42.706;23.306;2023-03-11T11:26:17;93175.66;;;14.62;51.89
43934;BME280;59081;42.706;23.306;2023-03-11T11:31:35;93250.06;;;14.94;50.98
43934;BME280;59081;42.706;23.306;2023-03-11T11:34:01;93176.06;;;14.78;51.86
43934;BME280;59081;42.706;23.306;2023-03-11T11:36:34;93100.97;;;14.40;51.74
43934;BME280;59081;42.706;23.306;2023-03-11T11:39:05;93214.81;;;15.30;52.66
43934;BME280;59081;42.706;23.306;2023-03-11T11:41:40;93227.84;;;15.05;50.15
43934;BME280;59081;42.706;23.306;2023-03-11T11:44:14;93139.97;;;14.42;49.99
43934;BME280;59081;42.706;23.306;2023-03-11T11:46:57;93178.25;;;14.49;49.59
43934;BME280;59081;42.706;23.306;2023-03-11T11:49:34;93240.28;;;14.87;49.92
43934;BME280;59081;42.706;23.306;2023-03-11T11:52:22;93092.78;;;14.07;49.24
43934;BME280;59081;42.706;23.306;2023-03-11T11:57:23;93182.28;;;15.66;46.95
43934;BME280;59081;42.706;23.306;2023-03-11T11:59:48;93076.84;;;15.36;45.31
43934;BME280;59081;42.706;23.306;2023-03-11T12:05:01;93229.28;;;16.61;43.89
43934;BME280;59081;42.706;23.306;2023-03-11T12:13:28;93162.50;;;16.24;43.61
43934;BME280;59081;42.706;23.306;2023-03-11T12:16:11;93237.38;;;17.02;41.59
43934;BME280;59081;42.706;23.306;2023-03-11T12:18:45;93120.28;;;16.68;40.71
43934;BME280;59081;42.706;23.306;2023-03-11T12:21:35;93093.75;;;16.49;39.30
43934;BME280;59081;42.706;23.306;2023-03-11T12:27:09;93131.97;;;16.43;38.45
43934;BME280;59081;42.706;23.306;2023-03-11T12:29:42;93135.16;;;15.85;39.65
43934;BME280;59081;42.706;23.306;2023-03-11T12:32:39;93074.06;;;15.36;40.89
43934;BME280;59081;42.706;23.306;2023-03-11T12:35:25;93052.50;;;14.93;42.06
43934;BME280;59081;42.706;23.306;2023-03-11T12:40:48;93106.06;;;15.07;43.55
43934;BME280;59081;42.706;23.306;2023-03-11T12:43:26;93045.72;;;14.12;44.92
43934;BME280;59081;42.706;23.306;2023-03-11T12:46:00;93030.59;;;13.55;47.39
43934;BME280;59081;42.706;23.306;2023-03-11T12:51:03;93058.59;;;12.79;49.83
43934;BME280;59081;42.706;23.306;2023-03-11T12:53:48;93195.75;;;13.88;50.40
43934;BME280;59081;42.706;23.306;2023-03-11T13:00:28;93283.34;;;13.64;53.74
43934;BME280;59081;42.706;23.306;2023-03-11T13:06:10;93183.66;;;12.74;53.86
43934;BME280;59081;42.706;23.306;2023-03-11T13:08:46;93299.63;;;13.34;54.49
43934;BME280;59081;42.706;23.306;2023-03-11T13:16:47;93288.50;;;13.11;56.72
43934;BME280;59081;42.706;23.306;2023-03-11T13:21:55;93233.81;;;12.50;57.94
43934;BME280;59081;42.706;23.306;2023-03-11T13:32:21;93382.25;;;12.24;72.47
43934;BME280;59081;42.706;23.306;2023-03-11T13:34:51;93279.44;;;11.09;76.01
43934;BME280;59081;42.706;23.306;2023-03-11T13:37:52;93408.44;;;11.31;82.06
43934;BME280;59081;42.706;23.306;2023-03-11T13:40:36;93413.78;;;11.14;83.28
43934;BME280;59081;42.706;23.306;2023-03-11T13:43:21;93193.34;;;9.26;82.09
43934;BME280;59081;42.706;23.306;2023-03-11T13:46:33;93409.44;;;10.67;84.20
43934;BME280;59081;42.706;23.306;2023-03-11T13:48:43;93197.50;;;9.21;80.80
43934;BME280;59081;42.706;23.306;2023-03-11T13:51:21;93256.91;;;9.33;82.93
43934;BME280;59081;42.706;23.306;2023-03-11T13:53:55;93272.44;;;9.22;83.86
43934;BME280;59081;42.706;23.306;2023-03-11T13:56:27;93258.31;;;9.29;84.37
43934;BME280;59081;42.706;23.306;2023-03-11T13:58:53;93201.19;;;9.18;84.28
43934;BME280;59081;42.706;23.306;2023-03-11T14:01:19;93284.47;;;9.89;83.88
43934;BME280;59081;42.706;23.306;2023-03-11T14:03:46;93344.22;;;10.38;82.35
43934;BME280;59081;42.706;23.306;2023-03-11T14:06:19;93191.63;;;9.28;83.14
43934;BME280;59081;42.706;23.306;2023-03-11T14:08:53;93307.00;;;10.07;82.68
43934;BME280;59081;42.706;23.306;2023-03-11T14:11:19;93152.72;;;9.00;83.13
43934;BME280;59081;42.706;23.306;2023-03-11T14:13:52;93402.41;;;10.66;83.46
43934;BME280;59081;42.706;23.306;2023-03-11T14:16:35;93243.91;;;9.49;83.66
43934;BME280;59081;42.706;23.306;2023-03-11T14:19:20;93246.47;;;9.52;84.13
43934;BME280;59081;42.706;23.306;2023-03-11T14:21:48;93195.59;;;9.27;84.85
43934;BME280;59081;42.706;23.306;2023-03-11T14:24:24;93353.38;;;10.15;85.44
43934;BME280;59081;42.706;23.306;2023-03-11T14:26:51;93424.81;;;10.73;86.54